createdAt,value
2023-02-09T00:02:23.950Z,1.19
2023-02-09T00:04:52.276Z,1.48
2023-02-09T00:07:20.636Z,1.87
2023-02-09T00:09:48.984Z,1.98
2023-02-09T00:12:34.630Z,1.77
2023-02-09T00:15:02.964Z,1.90
2023-02-09T00:17:33.650Z,1.94
2023-02-09T00:20:01.932Z,1.97
2023-02-09T00:22:30.599Z,2.02
2023-02-09T00:24:58.974Z,2.03
2023-02-09T00:27:27.298Z,2.02
2023-02-09T00:29:55.585Z,2.06
2023-02-09T00:32:23.908Z,2.06
2023-02-09T00:34:53.640Z,1.93
2023-02-09T00:37:21.968Z,1.87
2023-02-09T00:39:50.316Z,1.79
2023-02-09T00:42:18.589Z,1.73
2023-02-09T00:44:46.958Z,1.81
2023-02-09T00:47:15.247Z,1.59
2023-02-09T00:49:43.521Z,1.60
2023-02-09T00:52:13.192Z,1.55
2023-02-09T00:54:41.690Z,1.39
2023-02-09T00:57:09.984Z,1.31
2023-02-09T00:59:40.660Z,1.33
2023-02-09T01:02:09.165Z,1.13
2023-02-09T01:04:38.923Z,1.06
2023-02-09T01:07:07.281Z,1.07
2023-02-09T01:09:36.895Z,0.95
2023-02-09T01:12:06.199Z,0.57
2023-02-09T01:14:34.526Z,0.55
2023-02-09T01:17:02.984Z,0.52
2023-02-09T01:19:31.378Z,0.28
2023-02-09T01:21:59.703Z,0.27
2023-02-09T01:24:28.112Z,0.29
2023-02-09T01:26:58.225Z,0.18
2023-02-09T01:29:26.671Z,-0.10
2023-02-09T01:31:55.126Z,-0.25
2023-02-09T01:34:23.457Z,-0.28
2023-02-09T01:36:51.766Z,0.06
2023-02-09T01:39:20.089Z,0.03
2023-02-09T01:41:48.470Z,-0.01
2023-02-09T01:44:54.345Z,-0.32
2023-02-09T01:47:24.135Z,-0.12
2023-02-09T01:49:53.742Z,0.04
2023-02-09T01:52:25.023Z,0.34
2023-02-09T01:54:56.280Z,0.33
2023-02-09T01:57:26.801Z,0.03
2023-02-09T01:59:59.761Z,0.21
2023-02-09T02:02:29.648Z,-0.04
2023-02-09T02:04:58.292Z,-0.05
2023-02-09T02:07:29.456Z,0.07
2023-02-09T02:09:58.463Z,0.14
2023-02-09T02:12:27.523Z,0.31
2023-02-09T02:14:55.849Z,0.34
2023-02-09T02:17:31.827Z,0.41
2023-02-09T02:20:27.289Z,0.65
2023-02-09T02:23:06.224Z,0.55
2023-02-09T02:26:06.762Z,0.29
2023-02-09T02:28:46.844Z,0.13
2023-02-09T02:31:46.933Z,0.30
2023-02-09T02:34:20.533Z,0.21
2023-02-09T02:37:01.518Z,0.26
2023-02-09T02:39:33.556Z,0.14
2023-02-09T02:42:22.082Z,0.55
2023-02-09T02:44:57.693Z,0.28
2023-02-09T02:47:28.953Z,0.66
2023-02-09T02:49:59.782Z,0.43
2023-02-09T02:52:28.087Z,0.68
2023-02-09T02:55:02.817Z,0.87
2023-02-09T02:57:32.976Z,0.23
2023-02-09T03:00:05.130Z,-0.18
2023-02-09T03:02:37.855Z,-0.44
2023-02-09T03:05:07.204Z,0.12
2023-02-09T03:07:35.567Z,-0.09
2023-02-09T03:10:23.475Z,-0.40
2023-02-09T03:13:00.652Z,-0.20
2023-02-09T03:15:35.484Z,-0.91
2023-02-09T03:18:15.767Z,-0.87
2023-02-09T03:20:50.017Z,-0.84
2023-02-09T03:23:27.497Z,-0.15
2023-02-09T03:25:57.437Z,-0.18
2023-02-09T03:28:28.622Z,0.03
2023-02-09T03:30:57.693Z,0.16
2023-02-09T03:33:29.752Z,-0.23
2023-02-09T03:36:00.583Z,-0.29
2023-02-09T03:38:28.972Z,-0.59
2023-02-09T03:40:57.408Z,-0.34
2023-02-09T03:43:46.344Z,-0.69
2023-02-09T03:46:14.724Z,-0.75
2023-02-09T03:48:44.575Z,-0.68
2023-02-09T03:51:13.390Z,-0.45
2023-02-09T03:53:41.741Z,-0.31
2023-02-09T03:56:10.217Z,-0.21
2023-02-09T03:58:38.618Z,-0.18
2023-02-09T04:01:09.398Z,-0.49
2023-02-09T04:03:39.751Z,-0.25
2023-02-09T04:06:10.984Z,-0.35
2023-02-09T04:08:39.332Z,-0.51
2023-02-09T04:11:07.884Z,-0.53
2023-02-09T04:13:36.267Z,-0.67
2023-02-09T04:16:04.962Z,-0.41
2023-02-09T04:18:33.239Z,-0.55
2023-02-09T04:21:01.613Z,-0.63
2023-02-09T04:23:31.271Z,-0.97
2023-02-09T04:25:59.620Z,-1.29
2023-02-09T04:28:27.997Z,-1.44
2023-02-09T04:30:57.227Z,-1.12
2023-02-09T04:33:25.894Z,-1.24
2023-02-09T04:35:54.319Z,-0.92
2023-02-09T04:38:23.048Z,-1.37
2023-02-09T04:40:54.102Z,-1.35
2023-02-09T04:43:22.845Z,-0.97
2023-02-09T04:45:51.199Z,-0.94
2023-02-09T04:48:20.933Z,-0.94
2023-02-09T04:50:49.863Z,-1.28
2023-02-09T04:53:18.886Z,-1.56
2023-02-09T04:55:48.905Z,-1.28
2023-02-09T04:58:37.138Z,-1.34
2023-02-09T05:01:05.970Z,-1.34
2023-02-09T05:03:34.501Z,-1.79
2023-02-09T05:06:04.624Z,-1.65
2023-02-09T05:08:33.307Z,-2.51
2023-02-09T05:11:02.100Z,-2.95
2023-02-09T05:13:31.804Z,-3.25
2023-02-09T05:16:00.172Z,-2.15
2023-02-09T05:18:28.508Z,-1.71
2023-02-09T05:20:56.799Z,-1.62
2023-02-09T05:23:25.090Z,-1.46
2023-02-09T05:25:54.605Z,-1.92
2023-02-09T05:28:22.933Z,-1.60
2023-02-09T05:30:53.940Z,-1.56
2023-02-09T05:33:22.833Z,-2.14
2023-02-09T05:35:51.894Z,-1.98
2023-02-09T05:38:20.539Z,-1.77
2023-02-09T05:40:49.239Z,-2.08
2023-02-09T05:43:17.849Z,-2.85
2023-02-09T05:45:46.642Z,-2.69
2023-02-09T05:48:16.397Z,-2.19
2023-02-09T05:50:44.970Z,-1.81
2023-02-09T05:53:15.211Z,-2.41
2023-02-09T05:55:43.972Z,-3.14
2023-02-09T05:58:12.323Z,-2.91
2023-02-09T06:00:40.629Z,-2.39
2023-02-09T06:03:08.979Z,-2.38
2023-02-09T06:05:38.716Z,-2.52
2023-02-09T06:08:07.078Z,-2.21
2023-02-09T06:10:35.379Z,-2.11
2023-02-09T06:13:03.786Z,-1.82
2023-02-09T06:15:32.130Z,-1.91
2023-02-09T06:18:00.463Z,-1.90
2023-02-09T06:20:28.790Z,-1.75
2023-02-09T06:22:58.613Z,-2.06
2023-02-09T06:25:26.958Z,-2.14
2023-02-09T06:27:55.328Z,-1.64
2023-02-09T06:30:23.713Z,-1.51
2023-02-09T06:32:52.029Z,-1.86
2023-02-09T06:35:20.370Z,-2.08
2023-02-09T06:37:48.784Z,-2.40
2023-02-09T06:40:18.686Z,-2.57
2023-02-09T06:42:47.008Z,-2.31
2023-02-09T06:45:16.694Z,-2.82
2023-02-09T06:47:46.055Z,-2.17
2023-02-09T06:50:16.063Z,-1.97
2023-02-09T06:52:44.696Z,-1.55
2023-02-09T06:55:13.528Z,-1.34
2023-02-09T06:57:43.237Z,-1.26
2023-02-09T07:00:13.805Z,-1.52
2023-02-09T07:02:43.054Z,-1.27
2023-02-09T07:05:11.489Z,-0.98
2023-02-09T07:07:40.056Z,-1.40
2023-02-09T07:10:09.977Z,-1.25
2023-02-09T07:12:40.566Z,-1.09
2023-02-09T07:15:11.445Z,-1.27
2023-02-09T07:17:40.219Z,-0.99
2023-02-09T07:20:10.136Z,-1.40
2023-02-09T07:22:38.540Z,-0.95
2023-02-09T07:25:08.000Z,-0.59
2023-02-09T07:27:36.330Z,-0.31
2023-02-09T07:30:05.011Z,-0.37
2023-02-09T07:32:34.739Z,-0.33
2023-02-09T07:35:03.125Z,-0.10
2023-02-09T07:37:31.506Z,0.01
2023-02-09T07:39:59.903Z,0.19
2023-02-09T07:42:28.181Z,0.30
2023-02-09T07:44:56.502Z,0.24
2023-02-09T07:47:24.743Z,0.46
2023-02-09T07:49:54.407Z,0.69
2023-02-09T07:52:22.643Z,0.67
2023-02-09T07:54:52.899Z,0.61
2023-02-09T07:57:21.157Z,0.96
2023-02-09T07:59:49.419Z,0.85
2023-02-09T08:02:20.282Z,0.79
2023-02-09T08:04:48.605Z,0.88
2023-02-09T08:07:18.427Z,1.01
2023-02-09T08:09:47.093Z,0.94
2023-02-09T08:12:15.467Z,1.23
2023-02-09T08:14:48.310Z,1.70
2023-02-09T08:17:23.154Z,1.51
2023-02-09T08:19:54.892Z,0.91
2023-02-09T08:22:26.324Z,1.49
2023-02-09T08:24:54.788Z,1.88
2023-02-09T08:27:23.245Z,1.94
2023-02-09T08:29:51.602Z,1.43
2023-02-09T08:32:19.897Z,1.76
2023-02-09T08:34:48.159Z,2.46
2023-02-09T08:37:16.404Z,2.08
2023-02-09T08:39:46.761Z,2.40
2023-02-09T08:42:15.031Z,3.00
2023-02-09T08:44:43.350Z,3.41
2023-02-09T08:47:11.656Z,3.68
2023-02-09T08:49:39.988Z,3.14
2023-02-09T08:52:08.906Z,2.41
2023-02-09T08:54:37.629Z,3.47
2023-02-09T08:57:07.268Z,3.06
2023-02-09T08:59:35.561Z,3.80
2023-02-09T09:02:03.833Z,3.57
2023-02-09T09:04:32.397Z,4.13
2023-02-09T09:07:00.758Z,3.97
2023-02-09T09:09:29.010Z,4.39
2023-02-09T09:11:58.102Z,4.50
2023-02-09T09:14:27.757Z,4.73
2023-02-09T09:16:58.258Z,4.42
2023-02-09T09:19:26.369Z,4.60
2023-02-09T09:21:54.521Z,4.60
2023-02-09T09:24:23.822Z,4.61
2023-02-09T09:26:52.076Z,5.14
2023-02-09T09:29:20.349Z,5.24
2023-02-09T09:31:50.209Z,5.21
2023-02-09T09:34:18.498Z,5.07
2023-02-09T09:36:46.749Z,5.59
2023-02-09T09:39:15.223Z,5.24
2023-02-09T09:41:47.723Z,5.58
2023-02-09T09:44:19.048Z,5.81
2023-02-09T09:46:51.113Z,5.31
2023-02-09T09:49:25.655Z,5.38
2023-02-09T09:51:57.715Z,5.76
2023-02-09T09:54:27.135Z,6.00
2023-02-09T09:56:55.776Z,6.13
2023-02-09T09:59:27.315Z,5.17
2023-02-09T10:02:14.824Z,5.93
2023-02-09T10:04:43.099Z,6.37
2023-02-09T10:07:17.023Z,5.59
2023-02-09T10:09:49.562Z,6.21
2023-02-09T10:12:33.819Z,6.13
2023-02-09T10:15:17.858Z,6.11
2023-02-09T10:17:47.518Z,6.59
2023-02-09T10:20:15.779Z,6.96
2023-02-09T10:22:45.503Z,6.77
2023-02-09T10:25:36.605Z,7.38
2023-02-09T10:28:06.482Z,7.48
2023-02-09T10:30:35.269Z,7.47
2023-02-09T10:33:05.103Z,7.51
2023-02-09T10:35:45.065Z,7.42
2023-02-09T10:38:17.507Z,6.86
2023-02-09T10:40:47.542Z,7.44
2023-02-09T10:43:24.030Z,7.40
2023-02-09T10:45:56.805Z,7.68
2023-02-09T10:48:27.611Z,8.14
2023-02-09T10:50:58.468Z,7.88
2023-02-09T10:53:29.025Z,8.15
2023-02-09T10:56:03.448Z,8.10
2023-02-09T10:58:34.102Z,8.25
2023-02-09T11:01:15.258Z,8.26
2023-02-09T11:04:00.207Z,8.21
2023-02-09T11:06:29.146Z,8.52
2023-02-09T11:09:00.744Z,8.68
2023-02-09T11:11:31.595Z,8.71
2023-02-09T11:14:00.357Z,7.37
2023-02-09T11:16:59.290Z,7.02
2023-02-09T11:19:47.679Z,7.75
2023-02-09T11:22:20.647Z,7.70
2023-02-09T11:24:56.495Z,7.97
2023-02-09T11:27:41.879Z,7.82
2023-02-09T11:30:19.373Z,7.77
2023-02-09T11:32:51.920Z,8.14
2023-02-09T11:35:23.704Z,8.21
2023-02-09T11:37:57.465Z,7.07
2023-02-09T11:40:29.407Z,6.64
2023-02-09T11:43:05.885Z,7.63
2023-02-09T11:45:36.786Z,7.80
2023-02-09T11:48:08.689Z,6.87
2023-02-09T11:50:42.286Z,8.21
2023-02-09T11:53:19.557Z,6.84
2023-02-09T11:55:49.784Z,6.78
2023-02-09T11:58:31.071Z,7.74
2023-02-09T12:01:14.808Z,7.95
2023-02-09T12:03:53.717Z,7.17
2023-02-09T12:06:23.737Z,7.30
2023-02-09T12:09:00.118Z,8.39
2023-02-09T12:11:34.446Z,7.23
2023-02-09T12:14:13.646Z,7.64
2023-02-09T12:16:44.849Z,8.13
2023-02-09T12:19:27.543Z,7.43
2023-02-09T12:21:57.160Z,8.39
2023-02-09T12:24:33.902Z,8.56
2023-02-09T12:27:02.683Z,7.96
2023-02-09T12:29:38.971Z,8.80
2023-02-09T12:32:30.815Z,8.80
2023-02-09T12:35:26.008Z,8.09
2023-02-09T12:38:14.253Z,8.36
2023-02-09T12:40:42.658Z,9.46
2023-02-09T12:43:26.340Z,9.67
2023-02-09T12:46:23.551Z,9.71
2023-02-09T12:49:10.768Z,9.44
2023-02-09T12:51:45.661Z,8.87
2023-02-09T12:54:31.739Z,9.16
2023-02-09T12:57:33.372Z,9.92
2023-02-09T13:00:38.098Z,9.81
2023-02-09T13:03:14.185Z,10.39
2023-02-09T13:05:44.741Z,8.11
2023-02-09T13:08:17.615Z,8.52
2023-02-09T13:10:52.209Z,9.26
2023-02-09T13:13:25.072Z,9.82
2023-02-09T13:16:09.685Z,10.10
2023-02-09T13:18:47.300Z,10.38
2023-02-09T13:21:19.052Z,9.62
2023-02-09T13:23:59.714Z,10.01
2023-02-09T13:26:29.684Z,10.54
2023-02-09T13:29:19.922Z,10.38
2023-02-09T13:31:59.000Z,10.44
2023-02-09T13:34:33.039Z,10.01
2023-02-09T13:37:08.681Z,10.29
2023-02-09T13:39:39.634Z,10.61
2023-02-09T13:42:20.920Z,10.47
2023-02-09T13:44:52.193Z,10.22
2023-02-09T13:47:20.700Z,10.91
2023-02-09T13:49:59.912Z,11.02
2023-02-09T13:52:33.832Z,10.16
2023-02-09T13:55:12.612Z,10.41
2023-02-09T13:57:43.708Z,11.10
2023-02-09T14:00:21.662Z,10.87
2023-02-09T14:02:53.624Z,11.03
2023-02-09T14:05:28.189Z,11.25
2023-02-09T14:07:56.927Z,11.39
2023-02-09T14:10:25.853Z,11.07
2023-02-09T14:12:59.959Z,10.17
2023-02-09T14:15:52.566Z,10.22
2023-02-09T14:18:23.950Z,10.09
2023-02-09T14:21:03.084Z,9.65
2023-02-09T14:23:35.173Z,10.33
2023-02-09T14:26:05.710Z,9.79
2023-02-09T14:28:36.337Z,10.20
2023-02-09T14:31:04.576Z,10.51
2023-02-09T14:33:35.054Z,10.73
2023-02-09T14:36:03.412Z,10.51
2023-02-09T14:38:41.934Z,10.34
2023-02-09T14:41:29.832Z,10.76
2023-02-09T14:44:04.177Z,10.45
2023-02-09T14:46:48.502Z,9.78
2023-02-09T14:49:16.991Z,9.93
2023-02-09T14:51:45.618Z,10.12
2023-02-09T14:54:20.242Z,9.72
2023-02-09T14:56:48.707Z,10.16
2023-02-09T14:59:19.406Z,9.52
2023-02-09T15:01:48.901Z,10.02
2023-02-09T15:04:17.254Z,9.51
2023-02-09T15:06:48.810Z,9.28
2023-02-09T15:09:21.371Z,9.27
2023-02-09T15:12:08.031Z,9.90
2023-02-09T15:14:41.810Z,9.74
2023-02-09T15:17:18.324Z,9.79
2023-02-09T15:19:47.182Z,9.33
2023-02-09T15:22:16.688Z,10.02
2023-02-09T15:24:46.165Z,9.92
2023-02-09T15:27:27.227Z,10.15
2023-02-09T15:29:59.699Z,10.34
2023-02-09T15:32:29.470Z,10.34
2023-02-09T15:34:57.724Z,10.13
2023-02-09T15:37:28.268Z,10.31
2023-02-09T15:39:58.277Z,9.89
2023-02-09T15:42:44.243Z,9.93
2023-02-09T15:45:36.014Z,10.28
2023-02-09T15:48:04.976Z,10.14
2023-02-09T15:50:34.392Z,10.08
2023-02-09T15:53:04.435Z,10.08
2023-02-09T15:55:33.015Z,9.99
2023-02-09T15:58:01.438Z,9.94
2023-02-09T16:00:31.982Z,9.89
2023-02-09T16:03:01.410Z,9.82
2023-02-09T16:05:30.803Z,9.66
2023-02-09T16:07:59.821Z,9.65
2023-02-09T16:10:30.095Z,9.61
2023-02-09T16:12:58.640Z,9.50
2023-02-09T16:15:27.712Z,9.43
2023-02-09T16:17:57.291Z,9.28
2023-02-09T16:20:26.383Z,9.15
2023-02-09T16:22:55.898Z,9.09
2023-02-09T16:25:25.654Z,9.01
2023-02-09T16:27:55.122Z,8.91
2023-02-09T16:30:25.914Z,8.85
2023-02-09T16:32:54.868Z,8.75
2023-02-09T16:35:25.503Z,8.72
2023-02-09T16:37:53.550Z,8.57
2023-02-09T16:40:27.923Z,8.44
2023-02-09T16:42:56.814Z,8.33
2023-02-09T16:45:25.368Z,8.23
2023-02-09T16:47:57.163Z,8.17
2023-02-09T16:50:33.104Z,8.06
2023-02-09T16:53:03.334Z,7.92
2023-02-09T16:55:33.482Z,7.60
2023-02-09T16:58:03.836Z,7.52
2023-02-09T17:00:34.486Z,6.94
2023-02-09T17:03:04.210Z,6.42
2023-02-09T17:05:36.185Z,7.03
2023-02-09T17:08:07.798Z,6.99
2023-02-09T17:10:36.389Z,6.97
2023-02-09T17:13:04.821Z,6.86
2023-02-09T17:15:39.352Z,6.87
2023-02-09T17:18:09.313Z,6.84
2023-02-09T17:20:42.238Z,6.74
2023-02-09T17:23:14.993Z,6.70
2023-02-09T17:25:43.493Z,6.58
2023-02-09T17:28:12.577Z,6.54
2023-02-09T17:30:42.663Z,6.47
2023-02-09T17:33:15.581Z,6.30
2023-02-09T17:36:17.443Z,6.28
2023-02-09T17:38:35.665Z,6.26
2023-02-09T17:41:07.377Z,6.16
2023-02-09T17:43:35.651Z,6.16
2023-02-09T17:46:06.119Z,6.12
2023-02-09T17:48:34.574Z,5.86
2023-02-09T17:51:07.048Z,5.89
2023-02-09T17:53:36.114Z,5.20
2023-02-09T17:56:04.641Z,5.25
2023-02-09T17:58:32.982Z,5.16
2023-02-09T18:01:01.350Z,5.41
2023-02-09T18:03:29.685Z,5.50
2023-02-09T18:06:01.539Z,5.60
2023-02-09T18:08:31.377Z,5.45
2023-02-09T18:10:59.692Z,5.33
2023-02-09T18:13:28.142Z,5.17
2023-02-09T18:15:56.521Z,5.37
2023-02-09T18:18:24.925Z,5.03
2023-02-09T18:20:53.381Z,4.39
2023-02-09T18:23:23.123Z,4.92
2023-02-09T18:25:52.880Z,5.20
2023-02-09T18:28:21.289Z,5.17
2023-02-09T18:30:49.752Z,4.50
2023-02-09T18:33:18.910Z,4.81
2023-02-09T18:35:47.602Z,4.42
2023-02-09T18:38:16.411Z,4.59
2023-02-09T18:40:45.070Z,4.60
2023-02-09T18:43:15.849Z,4.46
2023-02-09T18:45:44.559Z,4.10
2023-02-09T18:48:13.443Z,3.81
2023-02-09T18:50:42.016Z,4.14
2023-02-09T18:53:12.475Z,4.02
2023-02-09T18:55:40.843Z,4.22
2023-02-09T18:58:10.307Z,3.45
2023-02-09T19:00:40.018Z,3.39
2023-02-09T19:03:08.318Z,3.67
2023-02-09T19:05:36.722Z,3.89
2023-02-09T19:08:07.360Z,4.13
2023-02-09T19:10:36.120Z,4.29
2023-02-09T19:13:05.025Z,4.34
2023-02-09T19:15:34.371Z,4.35
2023-02-09T19:18:04.299Z,4.37
2023-02-09T19:20:34.251Z,4.39
2023-02-09T19:23:03.850Z,4.39
2023-02-09T19:25:33.253Z,4.34
2023-02-09T19:28:01.663Z,4.43
2023-02-09T19:30:29.997Z,4.29
2023-02-09T19:32:58.774Z,4.14
2023-02-09T19:35:29.375Z,4.24
2023-02-09T19:37:57.995Z,4.07
2023-02-09T19:40:35.483Z,4.10
2023-02-09T19:43:04.781Z,4.11
2023-02-09T19:45:36.551Z,4.13
2023-02-09T19:48:05.392Z,4.11
2023-02-09T19:50:36.642Z,4.08
2023-02-09T19:53:06.325Z,3.87
2023-02-09T19:55:34.878Z,3.93
2023-02-09T19:58:03.258Z,3.88
2023-02-09T20:00:32.868Z,3.73
2023-02-09T20:03:01.312Z,3.83
2023-02-09T20:05:29.721Z,3.77
2023-02-09T20:07:59.418Z,3.76
2023-02-09T20:10:27.873Z,3.57
2023-02-09T20:12:56.170Z,3.69
2023-02-09T20:15:24.493Z,3.72
2023-02-09T20:17:52.979Z,3.56
2023-02-09T20:20:21.353Z,3.61
2023-02-09T20:22:51.115Z,3.35
2023-02-09T20:25:20.843Z,3.56
2023-02-09T20:27:50.308Z,3.53
2023-02-09T20:30:19.035Z,3.55
2023-02-09T20:32:47.409Z,3.62
2023-02-09T20:35:15.856Z,3.57
2023-02-09T20:37:44.315Z,3.45
2023-02-09T20:40:13.071Z,3.47
2023-02-09T20:43:00.342Z,3.44
2023-02-09T20:45:46.405Z,3.43
2023-02-09T20:48:14.732Z,3.11
2023-02-09T20:50:44.928Z,3.26
2023-02-09T20:53:13.625Z,3.15
2023-02-09T20:55:42.873Z,3.17
2023-02-09T20:58:13.780Z,3.06
2023-02-09T21:00:42.705Z,3.20
2023-02-09T21:03:11.151Z,3.19
2023-02-09T21:05:39.463Z,3.17
2023-02-09T21:08:09.199Z,3.05
2023-02-09T21:10:38.523Z,3.09
2023-02-09T21:13:07.934Z,3.01
2023-02-09T21:15:41.841Z,2.92
2023-02-09T21:18:10.124Z,2.95
2023-02-09T21:20:39.263Z,2.94
2023-02-09T21:23:07.498Z,2.91
2023-02-09T21:25:36.618Z,2.89
2023-02-09T21:28:05.181Z,2.91
2023-02-09T21:30:33.841Z,2.90
2023-02-09T21:33:03.451Z,2.88
2023-02-09T21:35:31.823Z,2.91
2023-02-09T21:38:00.111Z,2.90
2023-02-09T21:40:28.422Z,2.74
2023-02-09T21:42:56.656Z,2.63
2023-02-09T21:45:26.314Z,2.72
2023-02-09T21:47:54.646Z,2.70
2023-02-09T21:50:24.281Z,2.65
2023-02-09T21:52:54.621Z,2.66
2023-02-09T21:55:23.263Z,2.58
2023-02-09T21:57:51.615Z,2.54
2023-02-09T22:00:20.246Z,2.53
2023-02-09T22:02:52.949Z,1.81
2023-02-09T22:05:21.522Z,2.26
2023-02-09T22:07:51.625Z,2.26
2023-02-09T22:10:19.994Z,2.40
2023-02-09T22:12:48.301Z,2.28
2023-02-09T22:15:18.045Z,2.12
2023-02-09T22:17:47.985Z,2.22
2023-02-09T22:20:16.258Z,2.06
2023-02-09T22:22:45.958Z,2.27
2023-02-09T22:25:15.793Z,2.30
2023-02-09T22:27:44.089Z,2.31
2023-02-09T22:30:12.930Z,2.32
2023-02-09T22:32:41.411Z,2.41
2023-02-09T22:35:09.953Z,2.35
2023-02-09T22:37:38.299Z,2.44
2023-02-09T22:40:07.157Z,2.34
2023-02-09T22:42:36.833Z,2.33
2023-02-09T22:45:05.759Z,2.28
2023-02-09T22:47:34.858Z,2.33
2023-02-09T22:50:03.215Z,2.36
2023-02-09T22:52:31.561Z,2.35
2023-02-09T22:54:59.864Z,2.29
2023-02-09T22:57:28.332Z,2.28
2023-02-09T22:59:57.987Z,2.14
2023-02-09T23:02:26.533Z,1.98
2023-02-09T23:04:54.831Z,1.90
2023-02-09T23:07:23.127Z,1.93
2023-02-09T23:09:51.442Z,2.10
2023-02-09T23:12:19.832Z,2.17
2023-02-09T23:14:48.137Z,2.19
2023-02-09T23:17:17.865Z,2.26
2023-02-09T23:19:46.240Z,2.23
2023-02-09T23:22:14.575Z,2.27
2023-02-09T23:24:43.132Z,2.24
2023-02-09T23:27:11.450Z,2.22
2023-02-09T23:29:39.754Z,2.14
2023-02-09T23:32:08.080Z,2.17
2023-02-09T23:34:37.826Z,2.10
2023-02-09T23:37:13.764Z,2.08
2023-02-09T23:39:51.962Z,2.08
2023-02-09T23:42:20.358Z,2.03
2023-02-09T23:44:48.685Z,1.99
2023-02-09T23:47:17.201Z,1.79
2023-02-09T23:49:46.905Z,1.73
2023-02-09T23:52:15.234Z,1.18
2023-02-09T23:54:43.805Z,1.43
2023-02-09T23:57:12.143Z,1.26
2023-02-09T23:59:40.750Z,1.30
